Time;durP1;ratioP1;P1;durP2;ratioP2;P2;SDS_P1;SDS_P2;PMS_P1;PMS_P2;Temp;Humidity;BMP_temperature;BMP_pressure;BME280_temperature;BME280_humidity;BME280_pressure;Samples;Min_cycle;Max_cycle;Signal;HPM_P1;HPM_P2
2021/05/28 00:01:46;;;;;;;5.60;1.87;;;7.90;1.00;;;;;;4813884;28;20211;-75
2021/05/28 00:04:08;;;;;;;6.67;1.83;;;;;;;;;;4800115;28;20271;-77
2021/05/28 00:06:30;;;;;;;11.60;2.90;;;;;;;;;;4817224;28;20191;-76
2021/05/28 00:08:53;;;;;;;9.70;2.50;;;9.00;1.00;;;;;;4817804;28;20191;-78
2021/05/28 00:11:16;;;;;;;6.57;2.10;;;8.10;1.00;;;;;;4819430;28;20601;-75
2021/05/28 00:13:38;;;;;;;8.47;2.30;;;8.10;1.00;;;;;;4819468;28;20207;-81
2021/05/28 00:16:00;;;;;;;5.00;1.67;;;;;;;;;;4821187;28;20184;-77
2021/05/28 00:18:23;;;;;;;6.87;2.00;;;;;;;;;;4819743;28;20820;-76
2021/05/28 00:20:45;;;;;;;3.80;1.63;;;7.90;16.70;;;;;;4819992;28;20681;-79
2021/05/28 00:23:07;;;;;;;4.93;1.97;;;8.30;1.00;;;;;;4804109;28;20204;-78
2021/05/28 00:25:29;;;;;;;11.63;3.23;;;;;;;;;;4821503;28;20789;-79
2021/05/28 00:27:52;;;;;;;6.00;2.10;;;8.40;99.90;;;;;;4788498;28;20877;-83
2021/05/28 00:30:15;;;;;;;5.37;1.83;;;8.10;99.90;;;;;;4804333;28;20291;-79
2021/05/28 00:32:37;;;;;;;9.47;2.73;;;8.20;99.90;;;;;;4803633;28;20192;-82
2021/05/28 00:35:00;;;;;;;4.83;1.60;;;8.10;99.90;;;;;;4837192;28;20182;-79
2021/05/28 00:37:22;;;;;;;6.40;2.30;;;7.90;1.00;;;;;;4827558;28;20207;-79
2021/05/28 00:39:44;;;;;;;4.50;1.83;;;;;;;;;;4843372;28;20219;-82
2021/05/28 00:42:07;;;;;;;6.97;2.17;;;;;;;;;;4840403;28;20240;-81
2021/05/28 00:44:32;;;;;;;8.43;2.43;;;8.00;99.90;;;;;;4840078;28;20606;-83
2021/05/28 00:46:54;;;;;;;6.30;2.13;;;7.70;98.80;;;;;;4822610;28;20261;-83
2021/05/28 00:49:16;;;;;;;5.70;2.00;;;8.00;37.80;;;;;;4840152;28;20191;-82
2021/05/28 00:51:38;;;;;;;9.23;2.60;;;7.80;99.90;;;;;;4821993;28;20270;-83
2021/05/28 00:54:01;;;;;;;5.57;1.93;;;;;;;;;;4840224;28;20183;-80
2021/05/28 00:56:26;;;;;;;5.17;2.13;;;8.00;1.00;;;;;;4840112;28;20222;-80
2021/05/28 00:58:49;;;;;;;6.20;2.27;;;8.00;2.00;;;;;;4821878;28;20223;-78
2021/05/28 01:01:12;;;;;;;6.03;2.13;;;8.00;1.00;;;;;;4820138;28;20254;-80
2021/05/28 01:03:35;;;;;;;7.53;2.37;;;8.10;1.00;;;;;;4839787;28;20213;-80
2021/05/28 01:05:57;;;;;;;5.70;2.30;;;7.20;1.00;;;;;;4821938;28;20235;-82
2021/05/28 01:08:19;;;;;;;7.43;2.20;;;8.00;1.00;;;;;;4839998;28;20202;-81
2021/05/28 01:10:41;;;;;;;9.63;2.50;;;;;;;;;;4821624;28;20569;-81
2021/05/28 01:13:05;;;;;;;6.93;2.03;;;8.30;1.00;;;;;;4839873;28;20187;-80
2021/05/28 01:15:27;;;;;;;6.43;2.10;;;8.30;99.90;;;;;;4839834;28;20187;-81
2021/05/28 01:17:50;;;;;;;3.03;1.37;;;8.30;1.00;;;;;;4821987;28;20207;-80
2021/05/28 01:20:12;;;;;;;5.53;1.77;;;7.60;99.90;;;;;;4838400;28;20245;-81
2021/05/28 01:22:36;;;;;;;9.50;2.70;;;8.20;1.00;;;;;;4838865;28;20183;-80
2021/05/28 01:25:00;;;;;;;6.23;1.87;;;;;;;;;;4806332;28;20187;-84
2021/05/28 01:27:22;;;;;;;5.87;1.83;;;8.30;99.90;;;;;;4838079;28;20198;-81
2021/05/28 01:29:44;;;;;;;6.70;2.13;;;;;;;;;;4839305;28;20207;-81
2021/05/28 01:32:06;;;;;;;5.93;1.90;;;8.10;1.00;;;;;;4821126;28;20199;-82
2021/05/28 01:34:29;;;;;;;2.60;1.27;;;8.20;99.90;;;;;;4837712;28;20211;-83
2021/05/28 01:36:51;;;;;;;5.53;1.70;;;;;;;;;;4839425;28;20534;-81
2021/05/28 01:39:14;;;;;;;5.40;1.80;;;9.60;99.90;;;;;;4839441;28;20214;-82
2021/05/28 01:41:36;;;;;;;9.47;2.37;;;8.00;1.00;;;;;;4821613;28;20250;-82
2021/05/28 01:43:58;;;;;;;8.63;2.13;;;;;;;;;;4839272;28;20187;-81
2021/05/28 01:46:20;;;;;;;5.13;1.70;;;;;;;;;;4820906;28;20230;-83
2021/05/28 01:48:43;;;;;;;7.97;2.27;;;8.40;1.00;;;;;;4837363;28;20202;-83
2021/05/28 01:51:06;;;;;;;5.10;1.53;;;8.00;99.90;;;;;;4839173;28;20182;-82
2021/05/28 01:53:29;;;;;;;2.33;1.10;;;;;;;;;;4839034;28;20662;-79
2021/05/28 01:55:53;;;;;;;4.53;1.40;;;8.30;1.00;;;;;;4839122;28;20222;-82
2021/05/28 01:58:18;;;;;;;4.70;1.57;;;8.10;61.20;;;;;;4821255;28;20338;-82
2021/05/28 02:00:40;;;;;;;30.73;6.97;;;8.10;1.00;;;;;;4835456;28;20273;-81
2021/05/28 02:03:03;;;;;;;4.00;1.30;;;8.20;1.00;;;;;;4838962;28;20226;-82
2021/05/28 02:05:25;;;;;;;6.13;1.83;;;;;;;;;;4838950;28;20237;-82
2021/05/28 02:07:48;;;;;;;4.03;1.50;;;;;;;;;;4820720;28;20566;-80
2021/05/28 02:10:10;;;;;;;4.57;1.43;;;8.10;1.00;;;;;;4821302;28;20595;-81
2021/05/28 02:12:33;;;;;;;8.73;2.20;;;8.20;99.90;;;;;;4836996;28;20199;-82
2021/05/28 02:14:57;;;;;;;6.97;1.93;;;;;;;;;;4838710;28;20183;-83
2021/05/28 02:17:19;;;;;;;6.80;2.03;;;8.30;1.00;;;;;;4838498;28;20186;-82
2021/05/28 02:19:41;;;;;;;9.70;2.60;;;;;;;;;;4838241;28;20613;-83
2021/05/28 02:22:04;;;;;;;7.47;2.13;;;8.30;50.70;;;;;;4819652;28;20203;-82
2021/05/28 02:24:26;;;;;;;6.03;1.77;;;;;;;;;;4830404;28;21207;-83
2021/05/28 02:26:49;;;;;;;3.10;1.27;;;;;;;;;;4818374;28;20195;-80
2021/05/28 02:29:12;;;;;;;3.10;1.17;;;8.20;1.00;;;;;;4801663;28;20278;-83
2021/05/28 02:31:35;;;;;;;10.57;2.67;;;;;;;;;;4801828;28;20184;-82
2021/05/28 02:33:57;;;;;;;5.37;1.63;;;8.30;99.90;;;;;;4818624;28;20216;-81
2021/05/28 02:36:19;;;;;;;6.47;2.10;;;;;;;;;;4801970;28;20264;-84
2021/05/28 02:38:41;;;;;;;9.23;2.50;;;8.10;1.00;;;;;;4819305;28;20712;-84
2021/05/28 02:41:04;;;;;;;4.63;1.57;;;7.70;4.60;;;;;;4836698;28;20198;-82
2021/05/28 02:43:26;;;;;;;4.83;1.73;;;;;;;;;;4852847;28;20202;-82
2021/05/28 02:45:49;;;;;;;4.17;1.47;;;7.90;1.00;;;;;;4820678;28;20229;-81
2021/05/28 02:48:11;;;;;;;6.70;1.83;;;;;;;;;;4838024;28;20237;-82
2021/05/28 02:50:34;;;;;;;7.07;2.10;;;7.80;99.90;;;;;;4803763;28;20195;-83
2021/05/28 02:52:56;;;;;;;6.70;2.13;;;;;;;;;;4838102;28;20560;-83
2021/05/28 02:55:18;;;;;;;5.90;1.83;;;;;;;;;;4837834;28;20265;-83
2021/05/28 02:57:40;;;;;;;9.27;2.57;;;7.70;1.00;;;;;;4837562;28;20225;-83
2021/05/28 03:00:05;;;;;;;5.50;1.73;;;7.60;1.00;;;;;;4838268;28;20210;-80
2021/05/28 03:02:28;;;;;;;6.53;2.03;;;7.50;1.00;;;;;;4836211;28;20182;-78
2021/05/28 03:04:51;;;;;;;4.50;1.67;;;;;;;;;;4819920;28;20583;-80
2021/05/28 03:07:13;;;;;;;6.30;2.00;;;;;;;;;;4820116;28;20707;-82
2021/05/28 03:09:35;;;;;;;9.20;2.50;;;7.30;1.00;;;;;;4837687;28;20245;-77
2021/05/28 03:11:57;;;;;;;4.40;1.60;;;;;;;;;;4803448;28;20545;-79
2021/05/28 03:14:19;;;;;;;5.07;1.83;;;;;;;;;;4837979;28;20206;-80
2021/05/28 03:16:42;;;;;;;8.37;2.60;;;;;;;;;;4819967;28;20207;-79
2021/05/28 03:19:07;;;;;;;5.87;2.00;;;7.20;1.00;;;;;;4837491;28;20222;-81
2021/05/28 03:22:30;;;;;;;4.83;1.67;;;7.30;1.00;;;;;;4837351;28;20592;-82
2021/05/28 03:24:21;;;;;;;6.30;2.13;;;;;;;;;;4837453;28;20190;-79
2021/05/28 03:26:43;;;;;;;8.63;2.63;;;7.40;1.00;;;;;;4837029;28;20187;-78
2021/05/28 03:29:07;;;;;;;7.00;2.13;;;7.00;1.00;;;;;;4803481;28;20255;-82
2021/05/28 03:31:29;;;;;;;5.40;1.83;;;7.10;1.00;;;;;;4803083;28;20259;-80
2021/05/28 03:33:52;;;;;;;6.97;2.27;;;7.00;1.00;;;;;;4837607;28;20313;-82
2021/05/28 03:36:16;;;;;;;6.90;2.30;;;7.10;1.00;;;;;;4837291;28;20350;-80
2021/05/28 03:38:38;;;;;;;9.87;2.83;;;;;;;;;;4818461;28;20254;-80
2021/05/28 03:41:00;;;;;;;6.17;2.10;;;6.90;1.00;;;;;;4837319;28;20203;-83
2021/05/28 03:43:23;;;;;;;4.90;1.90;;;7.00;1.00;;;;;;4819220;28;20290;-81
2021/05/28 03:45:45;;;;;;;9.43;2.90;;;;;;;;;;4786262;28;20738;-81
2021/05/28 03:48:08;;;;;;;4.77;1.90;;;6.90;1.00;;;;;;4819980;28;20290;-82
2021/05/28 03:50:30;;;;;;;9.97;2.77;;;7.10;1.00;;;;;;4837094;28;20179;-82
2021/05/28 03:52:54;;;;;;;6.00;2.20;;;6.80;1.00;;;;;;4818980;28;20203;-82
2021/05/28 03:55:16;;;;;;;7.83;2.80;;;6.80;1.00;;;;;;4818647;28;20334;-82
2021/05/28 03:57:38;;;;;;;10.30;3.10;;;;;;;;;;4837045;28;20171;-82
2021/05/28 04:00:00;;;;;;;6.37;2.47;;;6.90;1.00;;;;;;4837240;28;20218;-82
2021/05/28 04:02:23;;;;;;;6.63;2.47;;;;;;;;;;4801972;28;20645;-83
2021/05/28 04:04:45;;;;;;;12.13;3.63;;;;;;;;;;4819375;28;20195;-83
2021/05/28 04:07:09;;;;;;;5.93;2.27;;;;;;;;;;4819667;28;20213;-79
2021/05/28 04:09:32;;;;;;;6.63;2.37;;;7.00;1.00;;;;;;4836708;28;20191;-82
2021/05/28 04:11:55;;;;;;;4.97;2.03;;;6.70;7.00;;;;;;4819100;28;20201;-83
2021/05/28 04:14:18;;;;;;;6.47;2.27;;;;;;;;;;4837197;28;20191;-81
2021/05/28 04:16:40;;;;;;;9.90;2.90;;;7.20;25.10;;;;;;4836857;28;20237;-82
2021/05/28 04:19:02;;;;;;;4.70;2.03;;;7.30;7.70;;;;;;4818941;28;20603;-82
2021/05/28 04:21:24;;;;;;;6.30;2.47;;;8.60;1.00;;;;;;4836833;28;20549;-82
2021/05/28 04:23:46;;;;;;;7.67;2.93;;;7.80;18.80;;;;;;4818699;28;20200;-83
2021/05/28 04:26:09;;;;;;;4.40;2.00;;;7.60;5.50;;;;;;4818848;28;20204;-78
2021/05/28 04:28:31;;;;;;;6.60;2.33;;;7.60;26.80;;;;;;4810171;28;20204;-81
2021/05/28 04:30:53;;;;;;;5.33;2.17;;;;;;;;;;4816227;28;20227;-83
2021/05/28 04:33:16;;;;;;;4.83;2.07;;;;;;;;;;4837073;28;20249;-82
2021/05/28 04:35:38;;;;;;;10.47;3.43;;;;;;;;;;4818997;28;20631;-82
2021/05/28 04:38:01;;;;;;;5.53;2.37;;;8.10;23.40;;;;;;4836760;28;20190;-80
2021/05/28 04:40:23;;;;;;;5.73;2.40;;;8.20;53.10;;;;;;4836791;28;20592;-82
2021/05/28 04:42:46;;;;;;;8.10;2.70;;;7.50;21.40;;;;;;4836813;28;20233;-81
2021/05/28 04:45:09;;;;;;;2.97;1.63;;;8.30;14.90;;;;;;4819330;28;20281;-78
2021/05/28 04:47:32;;;;;;;5.20;2.13;;;8.50;7.20;;;;;;4818761;28;20199;-79
2021/05/28 04:49:55;;;;;;;4.87;1.93;;;8.40;1.00;;;;;;4817996;28;20337;-80
2021/05/28 04:52:17;;;;;;;5.30;2.00;;;8.30;1.00;;;;;;4836733;28;20190;-81
2021/05/28 04:54:39;;;;;;;7.90;2.57;;;8.50;1.00;;;;;;4836398;28;20231;-81
2021/05/28 04:57:01;;;;;;;5.10;2.03;;;;;;;;;;4819295;28;20199;-79
2021/05/28 04:59:24;;;;;;;4.57;1.87;;;8.80;1.00;;;;;;4822362;28;20227;-81
2021/05/28 05:01:46;;;;;;;6.40;2.33;;;8.80;1.00;;;;;;4820516;28;20609;-79
2021/05/28 05:04:08;;;;;;;3.77;1.50;;;;;;;;;;4822292;28;20191;-80
2021/05/28 05:06:30;;;;;;;4.33;1.73;;;;;;;;;;4821907;28;20241;-78
2021/05/28 05:08:52;;;;;;;4.63;1.53;;;9.40;1.00;;;;;;4840074;28;20187;-82
2021/05/28 05:11:14;;;;;;;6.00;1.87;;;8.60;1.00;;;;;;4822417;28;20238;-81
2021/05/28 05:13:37;;;;;;;4.50;1.77;;;9.30;1.00;;;;;;4839788;28;20233;-82
2021/05/28 05:16:01;;;;;;;3.23;1.30;;;9.20;1.00;;;;;;4822087;28;20191;-80
2021/05/28 05:18:24;;;;;;;3.73;1.43;;;9.50;1.00;;;;;;4839854;28;20245;-81
2021/05/28 05:20:47;;;;;;;4.90;1.73;;;;;;;;;;4839774;28;20214;-84
2021/05/28 05:23:09;;;;;;;3.50;1.30;;;10.60;99.90;;;;;;4839833;28;20190;-81
2021/05/28 05:25:31;;;;;;;5.63;1.73;;;9.80;52.40;;;;;;4839551;28;20641;-80
2021/05/28 05:27:53;;;;;;;5.37;1.50;;;10.00;1.00;;;;;;4822249;28;20298;-76
2021/05/28 05:30:16;;;;;;;2.80;1.10;;;10.10;1.00;;;;;;4839688;28;20556;-77
2021/05/28 05:32:39;;;;;;;6.30;1.90;;;10.30;1.00;;;;;;4839495;28;20526;-81
2021/05/28 05:35:02;;;;;;;4.20;1.50;;;;;;;;;;4822182;28;20187;-80
2021/05/28 05:37:24;;;;;;;5.07;1.50;;;10.70;99.90;;;;;;4839740;28;20197;-75
2021/05/28 05:39:47;;;;;;;5.60;1.83;;;10.80;1.00;;;;;;4839142;28;20237;-77
2021/05/28 05:42:10;;;;;;;2.47;0.93;;;;;;;;;;4805023;28;20594;-77
2021/05/28 05:44:32;;;;;;;5.23;1.57;;;11.20;1.00;;;;;;4839216;28;20233;-77
2021/05/28 05:46:54;;;;;;;3.87;1.17;;;;;;;;;;4821523;28;20208;-78
2021/05/28 05:49:17;;;;;;;3.30;1.10;;;11.70;1.00;;;;;;4821442;28;20250;-80
2021/05/28 05:51:39;;;;;;;6.17;1.83;;;;;;;;;;4839159;28;20185;-80
2021/05/28 05:54:02;;;;;;;2.97;0.90;;;;;;;;;;4839424;28;20187;-79
2021/05/28 05:56:25;;;;;;;4.03;1.20;;;;;;;;;;4821448;28;20239;-78
2021/05/28 05:58:47;;;;;;;4.53;1.43;;;13.40;1.00;;;;;;4821031;28;20199;-81
2021/05/28 06:01:10;;;;;;;2.33;0.87;;;;;;;;;;4819240;28;20278;-76
2021/05/28 06:03:32;;;;;;;16.17;4.07;;;;;;;;;;4820544;28;20195;-86
2021/05/28 06:05:57;;;;;;;5.03;1.40;;;14.10;1.00;;;;;;4820459;28;20658;-79
2021/05/28 06:08:19;;;;;;;4.03;1.10;;;;;;;;;;4820092;28;20200;-80
2021/05/28 06:10:42;;;;;;;8.90;2.20;;;;;;;;;;4837787;28;20183;-80
2021/05/28 06:13:04;;;;;;;9.13;2.40;;;14.40;1.00;;;;;;4804007;28;20648;-77
2021/05/28 06:15:27;;;;;;;6.57;1.63;;;;;;;;;;4838252;28;20187;-78
2021/05/28 06:17:49;;;;;;;3.10;0.90;;;14.70;1.00;;;;;;4837548;28;20195;-76
2021/05/28 06:20:11;;;;;;;3.47;1.03;;;;;;;;;;4820117;28;20243;-83
2021/05/28 06:22:34;;;;;;;7.97;2.07;;;15.30;1.00;;;;;;4837892;28;20210;-77
2021/05/28 06:24:56;;;;;;;4.77;1.37;;;;;;;;;;4838017;28;20183;-80
2021/05/28 06:27:19;;;;;;;7.13;1.80;;;;;;;;;;4837614;28;20183;-81
2021/05/28 06:29:41;;;;;;;9.53;2.37;;;;;;;;;;4836905;28;20214;-79
2021/05/28 06:32:03;;;;;;;3.20;1.03;;;16.00;21.20;;;;;;4803541;28;20227;-81
2021/05/28 06:34:25;;;;;;;4.67;1.27;;;;;;;;;;4819686;28;20758;-82
2021/05/28 06:36:48;;;;;;;2.10;0.60;;;;;;;;;;4837420;28;20601;-78
2021/05/28 06:39:11;;;;;;;6.40;1.63;;;15.80;1.00;;;;;;4837062;28;20182;-79
2021/05/28 06:41:34;;;;;;;9.97;2.40;;;;;;;;;;4786987;28;20680;-79
2021/05/28 06:43:56;;;;;;;4.53;1.20;;;;;;;;;;4819114;28;20234;-81
2021/05/28 06:46:18;;;;;;;4.93;1.33;;;16.00;1.00;;;;;;4836867;28;20660;-80
2021/05/28 06:48:40;;;;;;;6.80;1.73;;;16.40;1.00;;;;;;4803463;28;20284;-79
2021/05/28 06:51:03;;;;;;;4.80;1.20;;;16.60;1.00;;;;;;4820293;28;20631;-79
2021/05/28 06:53:25;;;;;;;5.07;1.30;;;16.60;1.00;;;;;;4819303;28;20246;-82
2021/05/28 06:55:48;;;;;;;7.93;1.93;;;16.90;1.00;;;;;;4818648;28;20250;-84
2021/05/28 06:58:11;;;;;;;5.67;1.37;;;;;;;;;;4802157;28;20207;-81
2021/05/28 07:00:34;;;;;;;44.13;9.53;;;17.80;1.00;;;;;;4834183;28;20230;-79
2021/05/28 07:02:56;;;;;;;6.53;1.60;;;17.50;1.00;;;;;;4835591;28;20202;-82
2021/05/28 07:05:19;;;;;;;5.43;1.40;;;;;;;;;;4836178;28;20274;-78
2021/05/28 07:07:42;;;;;;;7.17;1.73;;;;;;;;;;4819011;28;20227;-80
2021/05/28 07:10:04;;;;;;;5.17;1.20;;;17.40;99.90;;;;;;4819495;28;20214;-78
2021/05/28 07:12:28;;;;;;;3.73;0.90;;;17.50;99.90;;;;;;4802873;28;20195;-81
2021/05/28 07:14:50;;;;;;;8.30;2.00;;;;;;;;;;4802031;28;20685;-78
2021/05/28 07:17:12;;;;;;;4.73;1.27;;;17.40;1.00;;;;;;4836851;28;20527;-78
2021/05/28 07:19:34;;;;;;;8.70;1.93;;;;;;;;;;4836340;28;20238;-80
2021/05/28 07:21:56;;;;;;;5.07;1.30;;;17.80;1.00;;;;;;4835535;28;20261;-81
2021/05/28 07:24:18;;;;;;;4.97;1.20;;;17.80;1.00;;;;;;4835454;28;20186;-84
2021/05/28 07:26:41;;;;;;;7.83;1.93;;;;;;;;;;4835756;28;20241;-82
2021/05/28 07:29:04;;;;;;;5.77;1.37;;;17.30;99.90;;;;;;4832632;28;20628;-78
2021/05/28 07:31:26;;;;;;;6.23;1.47;;;;;;;;;;4817494;28;20195;-82
2021/05/28 07:33:49;;;;;;;4.33;1.10;;;;;;;;;;4801690;28;20196;-78
2021/05/28 07:36:11;;;;;;;4.90;1.13;;;;;;;;;;4835713;28;20268;-80
2021/05/28 07:38:33;;;;;;;8.83;2.00;;;18.10;1.00;;;;;;4835287;28;20187;-82
2021/05/28 07:40:55;;;;;;;9.13;2.27;;;18.30;1.00;;;;;;4809035;28;20260;-81
2021/05/28 07:43:17;;;;;;;4.73;1.13;;;17.90;1.00;;;;;;4817697;28;20203;-80
2021/05/28 07:45:40;;;;;;;7.70;1.87;;;18.70;99.90;;;;;;4835313;28;20183;-84
2021/05/28 07:48:03;;;;;;;5.83;1.47;;;;;;;;;;4835459;28;20186;-78
2021/05/28 07:50:25;;;;;;;6.17;1.43;;;;;;;;;;4842662;28;20292;-78
2021/05/28 07:52:47;;;;;;;12.20;2.87;;;;;;;;;;4800889;28;20259;-77
2021/05/28 07:55:10;;;;;;;5.73;1.33;;;18.80;1.00;;;;;;4830353;28;20631;-78
2021/05/28 07:57:33;;;;;;;7.43;1.77;;;;;;;;;;4815881;28;20199;-79
2021/05/28 07:59:55;;;;;;;7.90;1.83;;;;;;;;;;4817179;28;20238;-75
2021/05/28 08:02:20;;;;;;;5.70;1.40;;;18.50;99.90;;;;;;4798038;28;20200;-85
2021/05/28 08:04:43;;;;;;;7.50;1.83;;;18.50;1.00;;;;;;4799156;28;20255;-82
2021/05/28 08:07:06;;;;;;;10.23;2.40;;;;;;;;;;4798485;28;20200;-82
2021/05/28 08:09:28;;;;;;;3.97;0.97;;;;;;;;;;4831859;28;20306;-82
2021/05/28 08:11:50;;;;;;;4.37;1.10;;;19.00;1.00;;;;;;4817333;28;20238;-82
2021/05/28 08:14:12;;;;;;;13.73;2.07;;;18.20;1.00;;;;;;4816836;28;20682;-80
2021/05/28 08:16:35;;;;;;;14.53;2.33;;;;;;;;;;4799381;28;20848;-80
2021/05/28 08:18:58;;;;;;;10.83;1.70;;;18.30;99.90;;;;;;4832395;28;20688;-83
2021/05/28 08:21:20;;;;;;;7.43;1.33;;;17.70;1.00;;;;;;4817174;28;20204;-82
2021/05/28 08:23:43;;;;;;;11.17;1.97;;;;;;;;;;4799038;28;20604;-79
2021/05/28 08:26:05;;;;;;;9.87;1.70;;;;;;;;;;4817165;28;20680;-80
2021/05/28 08:28:27;;;;;;;9.23;1.53;;;;;;;;;;4841622;28;20202;-83
2021/05/28 08:30:50;;;;;;;6.83;1.20;;;;;;;;;;4787494;28;20235;-82
2021/05/28 08:33:12;;;;;;;16.53;2.70;;;18.30;99.90;;;;;;4817604;28;20584;-81
2021/05/28 08:35:35;;;;;;;14.87;2.50;;;18.10;99.90;;;;;;4820289;28;20651;-82
2021/05/28 08:37:58;;;;;;;9.00;1.60;;;17.80;1.00;;;;;;4803186;28;20236;-81
2021/05/28 08:40:21;;;;;;;5.67;1.10;;;18.20;99.90;;;;;;4820740;28;20207;-80
2021/05/28 08:42:43;;;;;;;12.03;2.03;;;17.80;99.90;;;;;;4820636;28;20591;-82
2021/05/28 08:45:07;;;;;;;8.20;1.47;;;18.10;99.90;;;;;;4803272;28;20239;-80
2021/05/28 08:47:29;;;;;;;7.93;1.33;;;;;;;;;;4803456;28;20251;-77
2021/05/28 08:49:52;;;;;;;9.60;1.53;;;19.10;99.90;;;;;;4821286;28;20564;-77
2021/05/28 08:52:16;;;;;;;11.63;1.70;;;19.70;99.90;;;;;;4840025;28;20245;-80
2021/05/28 08:54:38;;;;;;;23.13;2.97;;;;;;;;;;4800832;28;20225;-79
2021/05/28 08:57:01;;;;;;;22.97;3.10;;;;;;;;;;4807357;28;20201;-79
2021/05/28 08:59:23;;;;;;;20.97;2.93;;;;;;;;;;4816519;28;20208;-82
2021/05/28 09:01:46;;;;;;;19.60;2.70;;;;;;;;;;4818099;28;20774;-80
2021/05/28 09:04:08;;;;;;;8.33;1.23;;;;;;;;;;4800484;28;20195;-81
2021/05/28 09:06:38;;;;;;;11.90;1.80;;;20.60;1.00;;;;;;4799962;28;20203;-81
2021/05/28 09:09:11;;;;;;;9.73;1.50;;;19.90;99.90;;;;;;4820590;28;20241;-82
2021/05/28 09:11:50;;;;;;;13.17;1.83;;;19.70;99.90;;;;;;4819805;28;20436;-89
2021/05/28 09:14:29;;;;;;;10.90;1.60;;;19.60;99.90;;;;;;4803237;28;20280;-82
2021/05/28 09:16:52;;;;;;;9.10;1.43;;;19.80;99.90;;;;;;4818371;28;20196;-83
2021/05/28 09:19:14;;;;;;;9.27;1.33;;;;;;;;;;4819933;28;20187;-80
2021/05/28 09:21:37;;;;;;;14.57;2.17;;;20.50;1.00;;;;;;4810346;28;20217;-79
2021/05/28 09:23:59;;;;;;;10.67;1.70;;;20.00;99.90;;;;;;4818748;28;20285;-82
2021/05/28 09:26:25;;;;;;;10.67;1.63;;;20.00;99.90;;;;;;4818565;28;20242;-80
2021/05/28 09:28:48;;;;;;;17.73;2.57;;;19.90;99.90;;;;;;4817932;28;20222;-79
2021/05/28 09:31:14;;;;;;;8.97;1.37;;;19.90;99.90;;;;;;4819608;28;20185;-77
2021/05/28 09:33:39;;;;;;;15.13;2.23;;;19.80;99.90;;;;;;4818456;28;20205;-79
2021/05/28 09:36:13;;;;;;;10.40;1.60;;;20.30;48.90;;;;;;4819956;28;20195;-79
2021/05/28 09:38:35;;;;;;;16.23;2.50;;;;;;;;;;4801944;28;20203;-77
2021/05/28 09:40:57;;;;;;;9.83;1.40;;;;;;;;;;4819847;28;20221;-77
2021/05/28 09:43:25;;;;;;;8.50;1.27;;;21.80;99.90;;;;;;4817889;28;20195;-78
2021/05/28 09:45:48;;;;;;;12.63;1.77;;;;;;;;;;4785675;28;20233;-80
2021/05/28 09:48:29;;;;;;;9.33;1.37;;;24.80;99.90;;;;;;4819933;28;20606;-76
2021/05/28 09:50:53;;;;;;;12.03;1.70;;;27.10;99.90;;;;;;4818148;28;20640;-79
2021/05/28 09:53:29;;;;;;;9.83;1.47;;;29.00;99.90;;;;;;4818483;28;20685;-77
2021/05/28 09:55:52;;;;;;;7.93;1.13;;;29.80;99.90;;;;;;4832670;28;20260;-83
2021/05/28 09:58:14;;;;;;;10.10;1.53;;;;;;;;;;4838227;28;20303;-80
2021/05/28 10:00:39;;;;;;;86.53;12.17;;;28.00;99.90;;;;;;4836057;28;20723;-83
2021/05/28 10:03:13;;;;;;;11.17;1.70;;;26.90;99.90;;;;;;4838611;28;20219;-84
2021/05/28 10:05:36;;;;;;;17.53;2.63;;;25.70;99.90;;;;;;4820816;28;20252;-81
2021/05/28 10:07:59;;;;;;;8.93;1.40;;;;;;;;;;4838269;28;20248;-81
2021/05/28 10:10:21;;;;;;;8.93;1.40;;;;;;;;;;4803862;28;20203;-78
2021/05/28 10:12:43;;;;;;;12.93;2.03;;;;;;;;;;4837724;28;20541;-82
2021/05/28 10:15:08;;;;;;;8.80;1.40;;;26.80;1.00;;;;;;4804697;28;20194;-79
2021/05/28 10:17:31;;;;;;;7.97;1.30;;;27.80;1.00;;;;;;4820260;28;20202;-86
2021/05/28 10:19:54;;;;;;;7.73;1.30;;;;;;;;;;4838132;28;20185;-79
2021/05/28 10:22:17;;;;;;;9.87;1.57;;;29.50;99.90;;;;;;4820207;28;20276;-81
2021/05/28 10:24:39;;;;;;;17.23;2.47;;;;;;;;;;4819501;28;20195;-78
2021/05/28 10:27:02;;;;;;;9.18;1.30;;;32.80;99.90;;;;;;4820028;28;20242;-82
2021/05/28 10:29:25;;;;;;;9.85;1.42;;;32.90;99.90;;;;;;4803766;28;20809;-80
2021/05/28 10:31:55;;;;;;;11.55;1.75;;;32.10;1.00;;;;;;4837657;28;20190;-82
2021/05/28 10:34:18;;;;;;;7.57;1.20;;;31.60;1.00;;;;;;4837959;28;20187;-84
2021/05/28 10:36:42;;;;;;;14.07;2.08;;;31.40;99.90;;;;;;4819761;28;20237;-83
2021/05/28 10:39:07;;;;;;;11.75;1.80;;;30.70;99.90;;;;;;4838101;28;20183;-79
2021/05/28 10:41:35;;;;;;;5.80;1.02;;;29.50;1.00;;;;;;4787616;28;20274;-83
2021/05/28 10:44:03;;;;;;;12.02;1.88;;;29.00;1.00;;;;;;4820039;28;20253;-84
2021/05/28 10:46:25;;;;;;;9.23;1.40;;;29.40;99.90;;;;;;4836750;28;20241;-80
2021/05/28 10:49:14;;;;;;;11.52;1.75;;;29.80;1.00;;;;;;4837311;28;20654;-82
2021/05/28 10:52:00;;;;;;;13.05;2.00;;;32.90;1.00;;;;;;4837453;28;20217;-80
2021/05/28 10:54:27;;;;;;;9.15;1.45;;;35.00;99.90;;;;;;4818554;28;20203;-80
2021/05/28 10:56:49;;;;;;;7.00;1.08;;;37.00;99.90;;;;;;4802821;28;20268;-78
2021/05/28 10:59:14;;;;;;;6.78;0.98;;;38.00;1.00;;;;;;4837397;28;20217;-82
2021/05/28 11:01:45;;;;;;;22.35;2.97;;;39.70;1.00;;;;;;4817620;28;20222;-85
2021/05/28 11:04:10;;;;;;;13.88;1.95;;;41.10;99.90;;;;;;4836749;28;21057;-83
2021/05/28 11:06:35;;;;;;;32.78;22.75;;;41.90;99.90;;;;;;4803002;28;20200;-80
2021/05/28 11:09:04;;;;;;;281.23;265.60;;;41.20;99.90;;;;;;4803453;28;20279;-83
2021/05/28 11:11:56;;;;;;;499.65;454.95;;;42.00;99.90;;;;;;4837015;28;20225;-85
2021/05/28 11:14:19;;;;;;;516.35;463.33;;;42.60;99.90;;;;;;4819763;28;20298;-86
2021/05/28 11:17:15;;;;;;;512.53;462.10;;;42.90;99.90;;;;;;4818655;28;20226;-80
2021/05/28 11:19:46;;;;;;;518.13;465.15;;;41.90;99.90;;;;;;4820771;28;20217;-81
2021/05/28 11:22:11;;;;;;;494.92;452.15;;;40.80;99.90;;;;;;4818970;28;20205;-79
2021/05/28 11:24:56;;;;;;;509.40;459.23;;;39.20;99.90;;;;;;4836698;28;20233;-78
2021/05/28 11:27:38;;;;;;;485.05;434.60;;;38.20;99.90;;;;;;4819138;28;20549;-84
2021/05/28 11:30:23;;;;;;;473.00;424.98;;;38.20;99.90;;;;;;4836491;28;20761;-82
2021/05/28 11:32:48;;;;;;;469.63;426.25;;;39.40;99.90;;;;;;4818795;28;20231;-81
2021/05/28 11:35:12;;;;;;;463.80;423.35;;;39.00;99.90;;;;;;4836659;28;20222;-79
2021/05/28 11:37:38;;;;;;;466.90;417.85;;;37.90;99.90;;;;;;4836747;28;20191;-83
2021/05/28 11:40:12;;;;;;;450.70;409.52;;;36.40;99.90;;;;;;4836848;28;20221;-87
2021/05/28 11:42:35;;;;;;;386.25;355.42;;;;;;;;;;4819259;28;20226;-85
2021/05/28 11:44:58;;;;;;;327.45;305.73;;;32.70;99.90;;;;;;4836904;28;20183;-83
2021/05/28 11:47:21;;;;;;;277.30;258.90;;;;;;;;;;4836670;28;20206;-80
2021/05/28 11:49:44;;;;;;;137.68;126.90;;;;;;;;;;4802591;28;20191;-87
2021/05/28 11:52:08;;;;;;;71.55;66.07;;;28.80;99.90;;;;;;4818916;28;20230;-82
2021/05/28 11:54:33;;;;;;;41.85;35.10;;;27.40;99.90;;;;;;4801742;28;20208;-85
2021/05/28 11:56:58;;;;;;;16.70;2.72;;;26.80;99.90;;;;;;4818833;28;20221;-84
2021/05/28 11:59:20;;;;;;;14.18;1.95;;;;;;;;;;4802234;28;20678;-79
2021/05/28 12:01:43;;;;;;;18.08;2.40;;;26.00;99.90;;;;;;4834505;28;20187;-79
2021/05/28 12:04:15;;;;;;;19.40;2.60;;;25.50;51.70;;;;;;4801952;28;20196;-84
2021/05/28 12:06:37;;;;;;;23.63;3.07;;;;;;;;;;4837794;28;20648;-87
2021/05/28 12:08:59;;;;;;;11.53;1.60;;;;;;;;;;4840174;28;20190;-81
2021/05/28 12:11:22;;;;;;;15.30;2.10;;;;;;;;;;4822463;28;20917;-82
2021/05/28 12:13:45;;;;;;;21.00;2.77;;;23.60;99.90;;;;;;4840516;28;20192;-82
2021/05/28 12:16:09;;;;;;;14.23;1.97;;;22.90;99.90;;;;;;4840324;28;20648;-81
2021/05/28 12:18:33;;;;;;;13.53;1.70;;;22.40;99.90;;;;;;4806217;28;20646;-82
2021/05/28 12:20:58;;;;;;;14.73;1.93;;;21.90;99.90;;;;;;4822211;28;20688;-79
2021/05/28 12:23:22;;;;;;;14.67;1.97;;;21.30;99.90;;;;;;4840422;28;20193;-86
2021/05/28 12:25:47;;;;;;;21.50;2.77;;;20.80;99.90;;;;;;4822488;28;20248;-79
2021/05/28 12:28:28;;;;;;;13.17;1.77;;;20.50;99.90;;;;;;4806157;28;20264;-86
2021/05/28 12:30:53;;;;;;;11.83;1.63;;;20.20;99.90;;;;;;4805804;28;20207;-81
2021/05/28 12:33:17;;;;;;;10.23;1.43;;;20.00;99.90;;;;;;4805765;28;20195;-84
2021/05/28 12:35:40;;;;;;;22.60;2.87;;;;;;;;;;4839238;28;20182;-80
2021/05/28 12:38:10;;;;;;;17.07;2.27;;;19.40;99.90;;;;;;4805732;28;20198;-80
2021/05/28 12:40:34;;;;;;;19.97;2.53;;;19.90;99.90;;;;;;4821358;28;20206;-78
2021/05/28 12:42:56;;;;;;;13.37;1.77;;;;;;;;;;4839767;28;20189;-81
2021/05/28 12:45:20;;;;;;;11.40;1.63;;;20.80;99.90;;;;;;4839796;28;20184;-88
2021/05/28 12:47:46;;;;;;;24.13;3.10;;;21.50;99.90;;;;;;4821379;28;20780;-78
2021/05/28 12:50:23;;;;;;;10.53;1.40;;;21.00;99.90;;;;;;4839852;28;20183;-80
2021/05/28 12:52:53;;;;;;;21.43;2.80;;;22.00;99.90;;;;;;4854453;28;20279;-80
2021/05/28 12:55:15;;;;;;;14.10;1.87;;;;;;;;;;4804684;28;20246;-81
2021/05/28 12:57:38;;;;;;;28.63;3.53;;;;;;;;;;4805631;28;20199;-83
2021/05/28 13:00:00;;;;;;;20.90;2.73;;;;;;;;;;4839163;28;20195;-82
2021/05/28 13:02:28;;;;;;;14.20;1.90;;;23.00;99.90;;;;;;4838088;28;20193;-86
2021/05/28 13:04:53;;;;;;;12.50;1.77;;;24.20;99.90;;;;;;4837962;28;20200;-79
2021/05/28 13:07:17;;;;;;;15.30;2.07;;;;;;;;;;4839593;28;20188;-84